sensor_id;sensor_type;location;lat;lon;timestamp;temperature;humidity
54429;DHT22;40337;52.978;6.310;2023-05-07T00:01:42;13.90;99.90
54429;DHT22;40337;52.978;6.310;2023-05-07T00:04:08;13.90;99.90
54429;DHT22;40337;52.978;6.310;2023-05-07T00:06:34;13.90;99.90
54429;DHT22;40337;52.978;6.310;2023-05-07T00:08:59;13.90;99.90
54429;DHT22;40337;52.978;6.310;2023-05-07T00:11:26;13.90;99.90
54429;DHT22;40337;52.978;6.310;2023-05-07T00:13:52;13.90;99.90
54429;DHT22;40337;52.978;6.310;2023-05-07T00:16:17;13.90;99.90
54429;DHT22;40337;52.978;6.310;2023-05-07T00:18:44;13.90;99.90
54429;DHT22;40337;52.978;6.310;2023-05-07T00:21:10;13.90;99.90
54429;DHT22;40337;52.978;6.310;2023-05-07T00:23:36;13.90;99.90
54429;DHT22;40337;52.978;6.310;2023-05-07T00:26:02;13.80;99.90
54429;DHT22;40337;52.978;6.310;2023-05-07T00:28:28;13.80;99.90
54429;DHT22;40337;52.978;6.310;2023-05-07T00:30:53;13.80;99.90
54429;DHT22;40337;52.978;6.310;2023-05-07T00:33:19;13.80;99.90
54429;DHT22;40337;52.978;6.310;2023-05-07T00:35:46;13.80;99.90
54429;DHT22;40337;52.978;6.310;2023-05-07T00:38:11;13.80;99.90
54429;DHT22;40337;52.978;6.310;2023-05-07T00:40:37;13.70;99.90
54429;DHT22;40337;52.978;6.310;2023-05-07T00:43:03;13.70;99.90
54429;DHT22;40337;52.978;6.310;2023-05-07T00:45:29;13.70;99.90
54429;DHT22;40337;52.978;6.310;2023-05-07T00:47:56;13.70;99.90
54429;DHT22;40337;52.978;6.310;2023-05-07T00:50:23;13.70;99.90
54429;DHT22;40337;52.978;6.310;2023-05-07T00:52:49;13.70;99.90
54429;DHT22;40337;52.978;6.310;2023-05-07T00:55:14;13.70;99.90
54429;DHT22;40337;52.978;6.310;2023-05-07T00:57:41;13.70;99.90
54429;DHT22;40337;52.978;6.310;2023-05-07T01:00:08;13.60;99.90
54429;DHT22;40337;52.978;6.310;2023-05-07T01:02:35;13.60;99.90
54429;DHT22;40337;52.978;6.310;2023-05-07T01:05:02;13.60;99.90
54429;DHT22;40337;52.978;6.310;2023-05-07T01:07:29;13.50;99.90
54429;DHT22;40337;52.978;6.310;2023-05-07T01:09:55;13.60;99.90
54429;DHT22;40337;52.978;6.310;2023-05-07T01:12:21;13.60;99.90
54429;DHT22;40337;52.978;6.310;2023-05-07T01:14:47;13.50;99.90
54429;DHT22;40337;52.978;6.310;2023-05-07T01:17:15;13.50;99.90
54429;DHT22;40337;52.978;6.310;2023-05-07T01:19:41;13.50;99.90
54429;DHT22;40337;52.978;6.310;2023-05-07T01:22:10;13.50;99.90
54429;DHT22;40337;52.978;6.310;2023-05-07T01:24:41;13.50;99.90
54429;DHT22;40337;52.978;6.310;2023-05-07T01:27:07;13.40;99.90
54429;DHT22;40337;52.978;6.310;2023-05-07T01:29:33;13.40;99.90
54429;DHT22;40337;52.978;6.310;2023-05-07T01:32:00;13.40;99.90
54429;DHT22;40337;52.978;6.310;2023-05-07T01:34:28;13.40;99.90
54429;DHT22;40337;52.978;6.310;2023-05-07T01:36:56;13.30;99.90
54429;DHT22;40337;52.978;6.310;2023-05-07T01:39:25;13.30;99.90
54429;DHT22;40337;52.978;6.310;2023-05-07T01:41:54;13.30;99.90
54429;DHT22;40337;52.978;6.310;2023-05-07T01:44:20;13.30;99.90
54429;DHT22;40337;52.978;6.310;2023-05-07T01:46:46;13.30;99.90
54429;DHT22;40337;52.978;6.310;2023-05-07T01:49:12;13.30;99.90
54429;DHT22;40337;52.978;6.310;2023-05-07T01:51:39;13.20;99.90
54429;DHT22;40337;52.978;6.310;2023-05-07T01:54:04;13.20;99.90
54429;DHT22;40337;52.978;6.310;2023-05-07T01:56:31;13.20;99.90
54429;DHT22;40337;52.978;6.310;2023-05-07T01:58:56;13.10;99.90
54429;DHT22;40337;52.978;6.310;2023-05-07T02:01:22;13.10;99.90
54429;DHT22;40337;52.978;6.310;2023-05-07T02:03:47;13.10;99.90
54429;DHT22;40337;52.978;6.310;2023-05-07T02:06:13;13.10;99.90
54429;DHT22;40337;52.978;6.310;2023-05-07T02:08:38;13.00;99.90
54429;DHT22;40337;52.978;6.310;2023-05-07T02:11:04;12.90;99.90
54429;DHT22;40337;52.978;6.310;2023-05-07T02:13:32;12.90;99.90
54429;DHT22;40337;52.978;6.310;2023-05-07T02:15:58;12.90;99.90
54429;DHT22;40337;52.978;6.310;2023-05-07T02:18:24;12.90;99.90
54429;DHT22;40337;52.978;6.310;2023-05-07T02:20:49;12.90;99.90
54429;DHT22;40337;52.978;6.310;2023-05-07T02:23:15;12.80;99.90
54429;DHT22;40337;52.978;6.310;2023-05-07T02:25:40;12.80;99.90
54429;DHT22;40337;52.978;6.310;2023-05-07T02:28:06;12.80;99.90
54429;DHT22;40337;52.978;6.310;2023-05-07T02:30:32;12.80;99.90
54429;DHT22;40337;52.978;6.310;2023-05-07T02:32:58;12.70;99.90
54429;DHT22;40337;52.978;6.310;2023-05-07T02:35:24;12.70;99.90
54429;DHT22;40337;52.978;6.310;2023-05-07T02:37:50;12.70;99.90
54429;DHT22;40337;52.978;6.310;2023-05-07T02:40:16;12.60;99.90
54429;DHT22;40337;52.978;6.310;2023-05-07T02:42:41;12.60;99.90
54429;DHT22;40337;52.978;6.310;2023-05-07T02:45:07;12.60;99.90
54429;DHT22;40337;52.978;6.310;2023-05-07T02:47:33;12.60;99.90
54429;DHT22;40337;52.978;6.310;2023-05-07T02:49:58;12.60;99.90
54429;DHT22;40337;52.978;6.310;2023-05-07T02:52:24;12.60;99.90
54429;DHT22;40337;52.978;6.310;2023-05-07T02:54:50;12.60;99.90
54429;DHT22;40337;52.978;6.310;2023-05-07T02:57:15;12.50;99.90
54429;DHT22;40337;52.978;6.310;2023-05-07T02:59:42;12.60;99.90
54429;DHT22;40337;52.978;6.310;2023-05-07T03:02:07;12.50;99.90
54429;DHT22;40337;52.978;6.310;2023-05-07T03:04:33;12.50;99.90
54429;DHT22;40337;52.978;6.310;2023-05-07T03:06:58;12.50;99.90
54429;DHT22;40337;52.978;6.310;2023-05-07T03:09:24;12.40;99.90
54429;DHT22;40337;52.978;6.310;2023-05-07T03:11:50;12.50;99.90
54429;DHT22;40337;52.978;6.310;2023-05-07T03:14:15;12.40;99.90
54429;DHT22;40337;52.978;6.310;2023-05-07T03:16:41;12.40;99.90
54429;DHT22;40337;52.978;6.310;2023-05-07T03:19:06;12.40;99.90
54429;DHT22;40337;52.978;6.310;2023-05-07T03:21:32;12.40;99.90
54429;DHT22;40337;52.978;6.310;2023-05-07T03:23:59;12.40;99.90
54429;DHT22;40337;52.978;6.310;2023-05-07T03:26:25;12.30;99.90
54429;DHT22;40337;52.978;6.310;2023-05-07T03:28:51;12.30;99.90
54429;DHT22;40337;52.978;6.310;2023-05-07T03:31:17;12.30;99.90
54429;DHT22;40337;52.978;6.310;2023-05-07T03:33:56;12.30;99.90
54429;DHT22;40337;52.978;6.310;2023-05-07T03:36:22;12.30;99.90
54429;DHT22;40337;52.978;6.310;2023-05-07T03:38:49;12.20;99.90
54429;DHT22;40337;52.978;6.310;2023-05-07T03:41:15;12.20;99.90
54429;DHT22;40337;52.978;6.310;2023-05-07T03:43:40;12.20;99.90
54429;DHT22;40337;52.978;6.310;2023-05-07T03:46:06;12.20;99.90
54429;DHT22;40337;52.978;6.310;2023-05-07T03:48:31;12.20;99.90
54429;DHT22;40337;52.978;6.310;2023-05-07T03:50:58;12.20;99.90
54429;DHT22;40337;52.978;6.310;2023-05-07T03:53:24;12.20;99.90
54429;DHT22;40337;52.978;6.310;2023-05-07T03:55:49;12.10;99.90
54429;DHT22;40337;52.978;6.310;2023-05-07T03:58:15;12.10;99.90
54429;DHT22;40337;52.978;6.310;2023-05-07T04:00:41;12.10;99.90
54429;DHT22;40337;52.978;6.310;2023-05-07T04:03:07;12.10;99.90
54429;DHT22;40337;52.978;6.310;2023-05-07T04:05:33;12.10;99.90
54429;DHT22;40337;52.978;6.310;2023-05-07T04:07:58;12.10;99.90
54429;DHT22;40337;52.978;6.310;2023-05-07T04:10:24;12.10;99.90
54429;DHT22;40337;52.978;6.310;2023-05-07T04:12:50;12.00;99.90
54429;DHT22;40337;52.978;6.310;2023-05-07T04:15:16;12.00;99.90
54429;DHT22;40337;52.978;6.310;2023-05-07T04:17:41;12.00;99.90
54429;DHT22;40337;52.978;6.310;2023-05-07T04:20:09;12.00;99.90
54429;DHT22;40337;52.978;6.310;2023-05-07T04:22:36;12.00;99.90
54429;DHT22;40337;52.978;6.310;2023-05-07T04:25:02;12.00;99.90
54429;DHT22;40337;52.978;6.310;2023-05-07T04:27:27;12.00;99.90
54429;DHT22;40337;52.978;6.310;2023-05-07T04:29:53;12.00;99.90
54429;DHT22;40337;52.978;6.310;2023-05-07T04:32:23;12.00;99.90
54429;DHT22;40337;52.978;6.310;2023-05-07T04:34:50;12.00;99.90
54429;DHT22;40337;52.978;6.310;2023-05-07T04:37:15;12.00;99.90
54429;DHT22;40337;52.978;6.310;2023-05-07T04:39:41;12.00;99.90
54429;DHT22;40337;52.978;6.310;2023-05-07T04:42:06;12.00;99.90
54429;DHT22;40337;52.978;6.310;2023-05-07T04:44:34;11.90;99.90
54429;DHT22;40337;52.978;6.310;2023-05-07T04:47:00;12.00;99.90
54429;DHT22;40337;52.978;6.310;2023-05-07T04:49:26;12.00;99.90
54429;DHT22;40337;52.978;6.310;2023-05-07T04:51:52;12.00;99.90
54429;DHT22;40337;52.978;6.310;2023-05-07T04:54:17;12.00;99.90
54429;DHT22;40337;52.978;6.310;2023-05-07T04:56:43;12.10;99.90
54429;DHT22;40337;52.978;6.310;2023-05-07T04:59:09;12.10;99.90
54429;DHT22;40337;52.978;6.310;2023-05-07T05:01:34;12.10;99.90
54429;DHT22;40337;52.978;6.310;2023-05-07T05:04:00;12.00;99.90
54429;DHT22;40337;52.978;6.310;2023-05-07T05:06:25;12.10;99.90
54429;DHT22;40337;52.978;6.310;2023-05-07T05:08:51;12.10;99.90
54429;DHT22;40337;52.978;6.310;2023-05-07T05:11:17;12.10;99.90
54429;DHT22;40337;52.978;6.310;2023-05-07T05:13:42;12.10;99.90
54429;DHT22;40337;52.978;6.310;2023-05-07T05:16:08;12.10;99.90
54429;DHT22;40337;52.978;6.310;2023-05-07T05:18:34;12.10;99.90
54429;DHT22;40337;52.978;6.310;2023-05-07T05:21:00;12.10;99.90
54429;DHT22;40337;52.978;6.310;2023-05-07T05:23:27;12.10;99.90
54429;DHT22;40337;52.978;6.310;2023-05-07T05:25:59;12.10;99.90
54429;DHT22;40337;52.978;6.310;2023-05-07T05:28:24;12.10;99.90
54429;DHT22;40337;52.978;6.310;2023-05-07T05:30:50;12.10;99.90
54429;DHT22;40337;52.978;6.310;2023-05-07T05:33:16;12.10;99.90
54429;DHT22;40337;52.978;6.310;2023-05-07T05:35:42;12.10;99.90
54429;DHT22;40337;52.978;6.310;2023-05-07T05:38:08;12.20;99.90
54429;DHT22;40337;52.978;6.310;2023-05-07T05:40:33;12.20;99.90
54429;DHT22;40337;52.978;6.310;2023-05-07T05:42:59;12.20;99.90
54429;DHT22;40337;52.978;6.310;2023-05-07T05:45:25;12.30;99.90
54429;DHT22;40337;52.978;6.310;2023-05-07T05:47:50;12.40;99.90
54429;DHT22;40337;52.978;6.310;2023-05-07T05:50:16;12.40;99.90
54429;DHT22;40337;52.978;6.310;2023-05-07T05:52:41;12.40;99.90
54429;DHT22;40337;52.978;6.310;2023-05-07T05:55:08;12.40;99.90
54429;DHT22;40337;52.978;6.310;2023-05-07T05:57:33;12.40;99.90
54429;DHT22;40337;52.978;6.310;2023-05-07T06:00:00;12.40;99.90
54429;DHT22;40337;52.978;6.310;2023-05-07T06:02:26;12.40;99.90
54429;DHT22;40337;52.978;6.310;2023-05-07T06:04:51;12.40;99.90
54429;DHT22;40337;52.978;6.310;2023-05-07T06:07:17;12.50;99.90
54429;DHT22;40337;52.978;6.310;2023-05-07T06:09:42;12.50;99.90
54429;DHT22;40337;52.978;6.310;2023-05-07T06:12:08;12.50;99.90
54429;DHT22;40337;52.978;6.310;2023-05-07T06:14:33;12.60;99.90
54429;DHT22;40337;52.978;6.310;2023-05-07T06:16:59;12.60;99.90
54429;DHT22;40337;52.978;6.310;2023-05-07T06:19:24;12.70;99.90
54429;DHT22;40337;52.978;6.310;2023-05-07T06:21:51;12.70;99.90
54429;DHT22;40337;52.978;6.310;2023-05-07T06:24:17;12.80;99.90
54429;DHT22;40337;52.978;6.310;2023-05-07T06:26:43;12.90;99.90
54429;DHT22;40337;52.978;6.310;2023-05-07T06:29:08;12.90;99.90
54429;DHT22;40337;52.978;6.310;2023-05-07T06:31:34;12.90;99.90
54429;DHT22;40337;52.978;6.310;2023-05-07T06:33:59;13.00;99.90
54429;DHT22;40337;52.978;6.310;2023-05-07T06:36:27;13.00;99.90
54429;DHT22;40337;52.978;6.310;2023-05-07T06:38:53;13.00;99.90
54429;DHT22;40337;52.978;6.310;2023-05-07T06:41:18;13.10;99.90
54429;DHT22;40337;52.978;6.310;2023-05-07T06:43:44;13.10;99.90
54429;DHT22;40337;52.978;6.310;2023-05-07T06:46:10;13.20;99.90
54429;DHT22;40337;52.978;6.310;2023-05-07T06:48:35;13.30;99.90
54429;DHT22;40337;52.978;6.310;2023-05-07T06:51:01;13.30;99.90
54429;DHT22;40337;52.978;6.310;2023-05-07T06:53:26;13.40;99.90
54429;DHT22;40337;52.978;6.310;2023-05-07T06:55:53;13.30;99.90
54429;DHT22;40337;52.978;6.310;2023-05-07T06:58:19;13.40;99.90
54429;DHT22;40337;52.978;6.310;2023-05-07T07:00:44;13.60;99.90
54429;DHT22;40337;52.978;6.310;2023-05-07T07:03:11;13.80;99.90
54429;DHT22;40337;52.978;6.310;2023-05-07T07:05:36;13.80;99.90
54429;DHT22;40337;52.978;6.310;2023-05-07T07:08:02;13.80;99.90
54429;DHT22;40337;52.978;6.310;2023-05-07T07:10:28;13.80;99.90
54429;DHT22;40337;52.978;6.310;2023-05-07T07:12:53;13.70;99.90
54429;DHT22;40337;52.978;6.310;2023-05-07T07:15:19;13.70;99.90
54429;DHT22;40337;52.978;6.310;2023-05-07T07:17:46;13.60;99.90
54429;DHT22;40337;52.978;6.310;2023-05-07T07:20:11;13.70;99.90
54429;DHT22;40337;52.978;6.310;2023-05-07T07:22:37;13.70;99.90
54429;DHT22;40337;52.978;6.310;2023-05-07T07:25:03;13.70;99.90
54429;DHT22;40337;52.978;6.310;2023-05-07T07:27:28;13.60;99.90
54429;DHT22;40337;52.978;6.310;2023-05-07T07:29:54;13.70;99.90
54429;DHT22;40337;52.978;6.310;2023-05-07T07:32:20;13.70;99.90
54429;DHT22;40337;52.978;6.310;2023-05-07T07:34:45;13.70;99.90
54429;DHT22;40337;52.978;6.310;2023-05-07T07:37:11;13.70;99.90
54429;DHT22;40337;52.978;6.310;2023-05-07T07:39:36;13.70;99.90
54429;DHT22;40337;52.978;6.310;2023-05-07T07:42:03;13.80;99.90
54429;DHT22;40337;52.978;6.310;2023-05-07T07:44:28;13.90;99.90
54429;DHT22;40337;52.978;6.310;2023-05-07T07:46:54;13.90;99.90
54429;DHT22;40337;52.978;6.310;2023-05-07T07:49:19;14.10;99.90
54429;DHT22;40337;52.978;6.310;2023-05-07T07:51:45;14.40;99.90
54429;DHT22;40337;52.978;6.310;2023-05-07T07:54:10;14.50;99.90
54429;DHT22;40337;52.978;6.310;2023-05-07T07:56:36;14.70;99.90
54429;DHT22;40337;52.978;6.310;2023-05-07T07:59:02;14.90;99.90
54429;DHT22;40337;52.978;6.310;2023-05-07T08:01:30;15.20;99.90
54429;DHT22;40337;52.978;6.310;2023-05-07T08:03:55;15.70;99.90
54429;DHT22;40337;52.978;6.310;2023-05-07T08:06:23;16.00;99.90
54429;DHT22;40337;52.978;6.310;2023-05-07T08:08:48;16.20;99.90
54429;DHT22;40337;52.978;6.310;2023-05-07T08:11:14;16.30;99.90
54429;DHT22;40337;52.978;6.310;2023-05-07T08:13:40;16.20;99.90
54429;DHT22;40337;52.978;6.310;2023-05-07T08:16:05;16.00;99.90
54429;DHT22;40337;52.978;6.310;2023-05-07T08:18:31;15.80;99.90
54429;DHT22;40337;52.978;6.310;2023-05-07T08:20:57;15.70;99.90
54429;DHT22;40337;52.978;6.310;2023-05-07T08:23:22;15.70;99.90
54429;DHT22;40337;52.978;6.310;2023-05-07T08:25:49;15.70;99.90
54429;DHT22;40337;52.978;6.310;2023-05-07T08:28:15;15.70;99.90
54429;DHT22;40337;52.978;6.310;2023-05-07T08:30:40;15.60;99.90
54429;DHT22;40337;52.978;6.310;2023-05-07T08:33:06;15.60;99.90
54429;DHT22;40337;52.978;6.310;2023-05-07T08:35:31;15.70;99.90
54429;DHT22;40337;52.978;6.310;2023-05-07T08:37:57;15.80;99.90
54429;DHT22;40337;52.978;6.310;2023-05-07T08:40:26;15.90;99.90
54429;DHT22;40337;52.978;6.310;2023-05-07T08:42:53;16.00;99.90
54429;DHT22;40337;52.978;6.310;2023-05-07T08:45:19;16.10;99.90
54429;DHT22;40337;52.978;6.310;2023-05-07T08:47:55;16.40;99.90
54429;DHT22;40337;52.978;6.310;2023-05-07T08:50:23;16.50;99.90
54429;DHT22;40337;52.978;6.310;2023-05-07T08:52:49;16.50;99.90
54429;DHT22;40337;52.978;6.310;2023-05-07T08:55:15;16.50;99.90
54429;DHT22;40337;52.978;6.310;2023-05-07T08:57:40;16.70;99.90
54429;DHT22;40337;52.978;6.310;2023-05-07T09:00:06;16.80;99.90
54429;DHT22;40337;52.978;6.310;2023-05-07T09:02:32;16.90;99.90
54429;DHT22;40337;52.978;6.310;2023-05-07T09:04:58;17.00;99.90
54429;DHT22;40337;52.978;6.310;2023-05-07T09:07:24;17.00;99.90
54429;DHT22;40337;52.978;6.310;2023-05-07T09:09:50;17.30;99.90
54429;DHT22;40337;52.978;6.310;2023-05-07T09:12:17;17.60;99.90
54429;DHT22;40337;52.978;6.310;2023-05-07T09:14:43;17.80;99.90
54429;DHT22;40337;52.978;6.310;2023-05-07T09:17:09;17.80;99.90
54429;DHT22;40337;52.978;6.310;2023-05-07T09:19:35;17.70;99.90
54429;DHT22;40337;52.978;6.310;2023-05-07T09:22:01;18.10;99.90
54429;DHT22;40337;52.978;6.310;2023-05-07T09:24:28;18.10;99.90
54429;DHT22;40337;52.978;6.310;2023-05-07T09:26:57;18.30;99.90
54429;DHT22;40337;52.978;6.310;2023-05-07T09:29:23;18.50;99.90
54429;DHT22;40337;52.978;6.310;2023-05-07T09:31:48;18.80;99.90
54429;DHT22;40337;52.978;6.310;2023-05-07T09:34:14;18.70;99.90
54429;DHT22;40337;52.978;6.310;2023-05-07T09:36:39;18.90;99.90
54429;DHT22;40337;52.978;6.310;2023-05-07T09:39:05;19.10;99.90
54429;DHT22;40337;52.978;6.310;2023-05-07T09:41:31;19.10;99.90
54429;DHT22;40337;52.978;6.310;2023-05-07T09:43:57;19.40;99.90
54429;DHT22;40337;52.978;6.310;2023-05-07T09:46:28;19.40;99.90
54429;DHT22;40337;52.978;6.310;2023-05-07T09:48:57;19.30;99.90
54429;DHT22;40337;52.978;6.310;2023-05-07T09:51:30;19.10;99.90
54429;DHT22;40337;52.978;6.310;2023-05-07T09:54:00;19.10;99.90
54429;DHT22;40337;52.978;6.310;2023-05-07T09:56:30;19.30;99.90
54429;DHT22;40337;52.978;6.310;2023-05-07T09:58:59;19.50;99.90
54429;DHT22;40337;52.978;6.310;2023-05-07T10:01:25;19.80;99.90
54429;DHT22;40337;52.978;6.310;2023-05-07T10:03:53;19.70;99.90
54429;DHT22;40337;52.978;6.310;2023-05-07T10:06:20;20.00;99.90
54429;DHT22;40337;52.978;6.310;2023-05-07T10:08:46;20.20;99.90
54429;DHT22;40337;52.978;6.310;2023-05-07T10:11:12;20.30;99.90
54429;DHT22;40337;52.978;6.310;2023-05-07T10:13:37;20.60;99.90
54429;DHT22;40337;52.978;6.310;2023-05-07T10:16:06;20.70;99.90
54429;DHT22;40337;52.978;6.310;2023-05-07T10:18:33;20.70;99.90
54429;DHT22;40337;52.978;6.310;2023-05-07T10:21:18;21.00;99.90
54429;DHT22;40337;52.978;6.310;2023-05-07T10:23:59;21.10;99.90
54429;DHT22;40337;52.978;6.310;2023-05-07T10:26:25;21.30;99.90
54429;DHT22;40337;52.978;6.310;2023-05-07T10:29:04;21.40;99.90
54429;DHT22;40337;52.978;6.310;2023-05-07T10:31:37;21.50;99.90
54429;DHT22;40337;52.978;6.310;2023-05-07T10:34:11;21.50;99.90
54429;DHT22;40337;52.978;6.310;2023-05-07T10:36:38;21.50;99.90
54429;DHT22;40337;52.978;6.310;2023-05-07T10:39:05;21.50;99.90
54429;DHT22;40337;52.978;6.310;2023-05-07T10:41:31;21.80;99.90
54429;DHT22;40337;52.978;6.310;2023-05-07T10:43:57;21.70;99.90
54429;DHT22;40337;52.978;6.310;2023-05-07T10:46:26;21.90;99.90
54429;DHT22;40337;52.978;6.310;2023-05-07T10:51:31;21.70;99.90
54429;DHT22;40337;52.978;6.310;2023-05-07T10:56:37;21.50;99.90
54429;DHT22;40337;52.978;6.310;2023-05-07T11:01:57;21.70;99.90
54429;DHT22;40337;52.978;6.310;2023-05-07T11:04:23;21.90;99.90
54429;DHT22;40337;52.978;6.310;2023-05-07T11:10:03;21.80;99.90
54429;DHT22;40337;52.978;6.310;2023-05-07T11:15:12;21.90;99.90
54429;DHT22;40337;52.978;6.310;2023-05-07T11:17:55;22.00;99.90
54429;DHT22;40337;52.978;6.310;2023-05-07T11:20:43;22.10;99.90
54429;DHT22;40337;52.978;6.310;2023-05-07T11:23:17;22.10;99.90
54429;DHT22;40337;52.978;6.310;2023-05-07T11:26:05;22.30;99.90
54429;DHT22;40337;52.978;6.310;2023-05-07T11:28:37;22.30;99.90
54429;DHT22;40337;52.978;6.310;2023-05-07T11:31:03;22.30;99.90
54429;DHT22;40337;52.978;6.310;2023-05-07T11:33:32;22.30;99.90
54429;DHT22;40337;52.978;6.310;2023-05-07T11:35:59;22.20;99.90
54429;DHT22;40337;52.978;6.310;2023-05-07T11:38:25;22.30;99.90
54429;DHT22;40337;52.978;6.310;2023-05-07T11:40:52;22.30;99.90
54429;DHT22;40337;52.978;6.310;2023-05-07T11:43:18;22.40;99.90
54429;DHT22;40337;52.978;6.310;2023-05-07T11:45:45;22.50;99.90
54429;DHT22;40337;52.978;6.310;2023-05-07T11:48:13;22.60;99.90
54429;DHT22;40337;52.978;6.310;2023-05-07T11:50:51;22.80;99.90
54429;DHT22;40337;52.978;6.310;2023-05-07T11:53:18;23.00;99.90
54429;DHT22;40337;52.978;6.310;2023-05-07T11:55:44;23.00;99.90
54429;DHT22;40337;52.978;6.310;2023-05-07T11:58:11;22.70;99.90
54429;DHT22;40337;52.978;6.310;2023-05-07T12:00:37;22.60;99.90
54429;DHT22;40337;52.978;6.310;2023-05-07T12:03:06;22.50;99.90
54429;DHT22;40337;52.978;6.310;2023-05-07T12:05:31;22.50;99.90
54429;DHT22;40337;52.978;6.310;2023-05-07T12:07:57;22.60;99.90
54429;DHT22;40337;52.978;6.310;2023-05-07T12:10:23;22.60;99.90
54429;DHT22;40337;52.978;6.310;2023-05-07T12:12:50;22.50;99.90
54429;DHT22;40337;52.978;6.310;2023-05-07T12:15:16;22.40;99.90
54429;DHT22;40337;52.978;6.310;2023-05-07T12:17:43;22.40;99.90
54429;DHT22;40337;52.978;6.310;2023-05-07T12:20:09;22.20;99.90
54429;DHT22;40337;52.978;6.310;2023-05-07T12:22:36;22.10;99.90
54429;DHT22;40337;52.978;6.310;2023-05-07T12:25:01;22.00;99.90
54429;DHT22;40337;52.978;6.310;2023-05-07T12:27:28;21.90;99.90
54429;DHT22;40337;52.978;6.310;2023-05-07T12:29:54;21.90;99.90
54429;DHT22;40337;52.978;6.310;2023-05-07T12:32:20;21.70;99.90
54429;DHT22;40337;52.978;6.310;2023-05-07T12:34:49;21.60;99.90
54429;DHT22;40337;52.978;6.310;2023-05-07T12:37:15;21.50;99.90
54429;DHT22;40337;52.978;6.310;2023-05-07T12:40:09;21.70;99.90
54429;DHT22;40337;52.978;6.310;2023-05-07T12:42:36;21.80;99.90
54429;DHT22;40337;52.978;6.310;2023-05-07T12:45:12;21.80;99.90
54429;DHT22;40337;52.978;6.310;2023-05-07T12:47:38;21.80;99.90
54429;DHT22;40337;52.978;6.310;2023-05-07T12:50:06;21.70;99.90
54429;DHT22;40337;52.978;6.310;2023-05-07T12:52:32;21.80;99.90
54429;DHT22;40337;52.978;6.310;2023-05-07T12:55:05;21.80;99.90
54429;DHT22;40337;52.978;6.310;2023-05-07T12:57:38;22.00;99.90
54429;DHT22;40337;52.978;6.310;2023-05-07T13:00:04;22.10;99.90
54429;DHT22;40337;52.978;6.310;2023-05-07T13:02:33;22.10;99.90
54429;DHT22;40337;52.978;6.310;2023-05-07T13:05:00;22.20;99.90
54429;DHT22;40337;52.978;6.310;2023-05-07T13:07:25;22.00;99.90
54429;DHT22;40337;52.978;6.310;2023-05-07T13:09:51;22.10;99.90
54429;DHT22;40337;52.978;6.310;2023-05-07T13:12:16;22.10;99.90
54429;DHT22;40337;52.978;6.310;2023-05-07T13:14:42;22.30;99.90
54429;DHT22;40337;52.978;6.310;2023-05-07T13:17:07;22.50;99.90
54429;DHT22;40337;52.978;6.310;2023-05-07T13:19:33;22.60;99.90
54429;DHT22;40337;52.978;6.310;2023-05-07T13:21:59;22.70;99.90
54429;DHT22;40337;52.978;6.310;2023-05-07T13:24:24;22.80;99.90
54429;DHT22;40337;52.978;6.310;2023-05-07T13:26:50;22.90;99.90
54429;DHT22;40337;52.978;6.310;2023-05-07T13:29:16;23.00;99.90
54429;DHT22;40337;52.978;6.310;2023-05-07T13:31:41;23.10;99.90
54429;DHT22;40337;52.978;6.310;2023-05-07T13:34:09;23.10;99.90
54429;DHT22;40337;52.978;6.310;2023-05-07T13:36:35;23.20;99.90
54429;DHT22;40337;52.978;6.310;2023-05-07T13:39:03;23.00;99.90
54429;DHT22;40337;52.978;6.310;2023-05-07T13:41:29;23.00;99.90
54429;DHT22;40337;52.978;6.310;2023-05-07T13:43:55;23.00;99.90
54429;DHT22;40337;52.978;6.310;2023-05-07T13:46:21;22.90;99.90
54429;DHT22;40337;52.978;6.310;2023-05-07T13:48:47;23.00;99.90
54429;DHT22;40337;52.978;6.310;2023-05-07T13:51:12;23.00;99.90
54429;DHT22;40337;52.978;6.310;2023-05-07T13:53:38;23.00;99.90
54429;DHT22;40337;52.978;6.310;2023-05-07T13:56:04;22.90;99.90
54429;DHT22;40337;52.978;6.310;2023-05-07T13:58:30;22.80;99.90
54429;DHT22;40337;52.978;6.310;2023-05-07T14:00:56;22.50;99.90
54429;DHT22;40337;52.978;6.310;2023-05-07T14:03:21;22.40;99.90
54429;DHT22;40337;52.978;6.310;2023-05-07T14:05:47;22.30;99.90
54429;DHT22;40337;52.978;6.310;2023-05-07T14:08:13;22.50;99.90
54429;DHT22;40337;52.978;6.310;2023-05-07T14:10:39;22.90;99.90
54429;DHT22;40337;52.978;6.310;2023-05-07T14:13:05;23.30;99.90
54429;DHT22;40337;52.978;6.310;2023-05-07T14:15:31;23.60;99.90
54429;DHT22;40337;52.978;6.310;2023-05-07T14:17:58;23.60;99.90
54429;DHT22;40337;52.978;6.310;2023-05-07T14:20:24;23.50;99.90
54429;DHT22;40337;52.978;6.310;2023-05-07T14:22:50;23.40;99.90
54429;DHT22;40337;52.978;6.310;2023-05-07T14:25:16;23.30;99.90
54429;DHT22;40337;52.978;6.310;2023-05-07T14:27:41;23.40;99.90
54429;DHT22;40337;52.978;6.310;2023-05-07T14:30:07;23.40;99.90
54429;DHT22;40337;52.978;6.310;2023-05-07T14:32:33;23.30;99.90
54429;DHT22;40337;52.978;6.310;2023-05-07T14:34:59;23.20;99.90
54429;DHT22;40337;52.978;6.310;2023-05-07T14:37:25;23.00;99.90
54429;DHT22;40337;52.978;6.310;2023-05-07T14:39:50;22.90;99.90
54429;DHT22;40337;52.978;6.310;2023-05-07T14:42:16;22.70;99.90
54429;DHT22;40337;52.978;6.310;2023-05-07T14:44:42;22.60;99.90
54429;DHT22;40337;52.978;6.310;2023-05-07T14:47:07;22.50;99.90
54429;DHT22;40337;52.978;6.310;2023-05-07T14:49:33;22.40;99.90
54429;DHT22;40337;52.978;6.310;2023-05-07T14:51:59;22.30;99.90
54429;DHT22;40337;52.978;6.310;2023-05-07T14:54:25;22.10;99.90
54429;DHT22;40337;52.978;6.310;2023-05-07T14:56:51;22.10;99.90
54429;DHT22;40337;52.978;6.310;2023-05-07T14:59:17;22.30;99.90
54429;DHT22;40337;52.978;6.310;2023-05-07T15:01:46;22.40;99.90
54429;DHT22;40337;52.978;6.310;2023-05-07T15:04:12;22.40;99.90
54429;DHT22;40337;52.978;6.310;2023-05-07T15:06:38;22.50;99.90
54429;DHT22;40337;52.978;6.310;2023-05-07T15:09:04;22.20;99.90
54429;DHT22;40337;52.978;6.310;2023-05-07T15:11:29;22.20;99.90
54429;DHT22;40337;52.978;6.310;2023-05-07T15:13:55;22.30;99.90
54429;DHT22;40337;52.978;6.310;2023-05-07T15:16:21;22.40;99.90
54429;DHT22;40337;52.978;6.310;2023-05-07T15:18:47;22.30;99.90
54429;DHT22;40337;52.978;6.310;2023-05-07T15:21:13;22.10;99.90
54429;DHT22;40337;52.978;6.310;2023-05-07T15:23:38;22.00;99.90
54429;DHT22;40337;52.978;6.310;2023-05-07T15:26:04;22.10;99.90
54429;DHT22;40337;52.978;6.310;2023-05-07T15:28:30;22.10;99.90
54429;DHT22;40337;52.978;6.310;2023-05-07T15:30:56;22.10;99.90
54429;DHT22;40337;52.978;6.310;2023-05-07T15:33:23;22.10;99.90
54429;DHT22;40337;52.978;6.310;2023-05-07T15:35:48;22.20;99.90
54429;DHT22;40337;52.978;6.310;2023-05-07T15:38:14;22.00;99.90
54429;DHT22;40337;52.978;6.310;2023-05-07T15:40:39;21.90;99.90